createdAt,value
2023-02-11T00:54:55.089Z,4.20
2023-02-11T00:57:28.391Z,3.53
2023-02-11T01:00:00.957Z,3.47
2023-02-11T01:02:36.183Z,3.60
2023-02-11T01:05:09.411Z,3.63
2023-02-11T01:07:42.657Z,3.17
2023-02-11T01:10:17.094Z,3.28
2023-02-11T01:12:50.440Z,3.92
2023-02-11T01:15:23.501Z,3.50
2023-02-11T01:17:56.817Z,4.53
2023-02-11T01:20:30.105Z,3.30
2023-02-11T01:23:03.002Z,2.22
2023-02-11T01:25:37.093Z,3.55
2023-02-11T01:28:17.866Z,3.05
2023-02-11T01:30:51.035Z,3.00
2023-02-11T01:33:24.207Z,2.83
2023-02-11T01:36:00.953Z,2.08
2023-02-11T01:38:35.596Z,3.35
2023-02-11T01:41:12.365Z,2.95
2023-02-11T01:43:47.618Z,3.08
2023-02-11T01:46:32.797Z,4.03
2023-02-11T01:49:11.056Z,3.25
2023-02-11T01:51:50.445Z,2.85
2023-02-11T01:54:44.971Z,2.97
2023-02-11T01:57:23.588Z,2.28
2023-02-11T02:00:03.975Z,1.70
2023-02-11T02:02:54.411Z,2.08
2023-02-11T02:05:33.285Z,2.72
2023-02-11T02:08:12.198Z,3.53
2023-02-11T02:10:48.713Z,2.15
2023-02-11T02:13:25.162Z,2.40
2023-02-11T02:16:21.862Z,1.90
2023-02-11T02:19:16.786Z,2.88
2023-02-11T02:22:18.568Z,1.50
2023-02-11T02:25:06.920Z,3.30
2023-02-11T02:28:01.352Z,2.90
2023-02-11T02:31:10.338Z,2.25
2023-02-11T02:33:53.280Z,2.35
2023-02-11T02:36:35.769Z,2.90
2023-02-11T02:39:13.033Z,1.92
2023-02-11T02:41:47.154Z,2.53
2023-02-11T02:44:20.764Z,2.50
2023-02-11T02:46:54.502Z,3.33
2023-02-11T02:49:28.329Z,2.25
2023-02-11T02:52:26.028Z,1.85
2023-02-11T02:55:23.084Z,2.83
2023-02-11T02:58:34.661Z,2.53
2023-02-11T03:01:20.615Z,3.50
2023-02-11T03:04:04.061Z,1.70
2023-02-11T03:06:48.856Z,2.38
2023-02-11T03:09:27.052Z,3.23
2023-02-11T03:12:01.260Z,2.22
2023-02-11T03:14:36.645Z,2.90
2023-02-11T03:17:10.931Z,2.05
2023-02-11T03:19:46.924Z,3.13
2023-02-11T03:22:26.137Z,2.47
2023-02-11T03:24:59.288Z,2.85
2023-02-11T03:27:39.193Z,2.58
2023-02-11T03:30:16.980Z,2.25
2023-02-11T03:32:52.812Z,3.47
2023-02-11T03:35:33.032Z,2.03
2023-02-11T03:38:12.951Z,3.30
2023-02-11T03:40:45.852Z,2.22
2023-02-11T03:43:22.894Z,3.05
2023-02-11T03:45:57.027Z,1.63
2023-02-11T03:48:33.656Z,2.33
2023-02-11T03:51:09.350Z,2.15
2023-02-11T03:53:47.079Z,1.98
2023-02-11T03:56:25.518Z,2.05
2023-02-11T03:58:58.914Z,2.00
2023-02-11T04:01:32.366Z,2.63
2023-02-11T04:04:06.093Z,2.22
2023-02-11T04:06:39.385Z,3.00
2023-02-11T04:09:15.266Z,2.50
2023-02-11T04:11:48.460Z,2.65
2023-02-11T04:14:21.165Z,3.27
2023-02-11T04:16:53.984Z,2.38
2023-02-11T04:19:26.586Z,3.20
2023-02-11T04:22:00.099Z,2.13
2023-02-11T04:24:34.722Z,2.35
2023-02-11T04:27:07.888Z,2.33
2023-02-11T04:29:41.054Z,2.53
2023-02-11T04:32:14.076Z,2.55
2023-02-11T04:34:46.660Z,2.33
2023-02-11T04:37:19.678Z,2.17
2023-02-11T04:39:53.403Z,2.30
2023-02-11T04:42:26.860Z,1.73
2023-02-11T04:44:59.992Z,2.47
2023-02-11T04:47:33.184Z,2.63
2023-02-11T04:50:06.478Z,2.53
2023-02-11T04:52:39.601Z,2.30
2023-02-11T04:55:13.976Z,2.00
2023-02-11T04:57:48.164Z,3.00
2023-02-11T05:00:21.410Z,3.10
2023-02-11T05:02:54.743Z,2.65
2023-02-11T05:05:27.447Z,2.33
2023-02-11T05:08:00.556Z,2.40
2023-02-11T05:10:34.967Z,2.42
2023-02-11T05:13:08.248Z,2.55
2023-02-11T05:15:41.393Z,2.92
2023-02-11T05:18:17.548Z,2.07
2023-02-11T05:20:50.492Z,3.80
2023-02-11T05:23:23.253Z,2.72
2023-02-11T05:25:57.356Z,2.15
2023-02-11T05:28:30.920Z,1.63
2023-02-11T05:31:04.437Z,2.23
2023-02-11T05:33:37.439Z,2.45
2023-02-11T05:36:13.450Z,2.65
2023-02-11T05:38:46.048Z,2.78
2023-02-11T05:41:20.625Z,2.65
2023-02-11T05:43:53.116Z,3.33
2023-02-11T05:46:26.020Z,2.38
2023-02-11T05:48:58.792Z,2.72
2023-02-11T05:51:32.226Z,3.58
2023-02-11T05:54:05.371Z,1.30
2023-02-11T05:56:40.077Z,2.87
2023-02-11T05:59:14.201Z,2.70
2023-02-11T06:01:47.118Z,1.73
2023-02-11T06:04:19.904Z,2.88
2023-02-11T06:06:52.964Z,3.67
2023-02-11T06:09:25.718Z,3.83
2023-02-11T06:12:00.099Z,2.72
2023-02-11T06:14:33.895Z,2.83
2023-02-11T06:17:07.086Z,2.80
2023-02-11T06:19:39.576Z,2.70
2023-02-11T06:22:12.689Z,2.93
2023-02-11T06:25:00.237Z,3.53
2023-02-11T06:27:38.130Z,2.38
2023-02-11T06:30:11.952Z,3.28
2023-02-11T06:32:46.175Z,2.30
2023-02-11T06:35:22.102Z,3.13
2023-02-11T06:37:58.310Z,2.30
2023-02-11T06:40:30.806Z,3.03
2023-02-11T06:43:04.964Z,2.83
2023-02-11T06:45:37.658Z,3.70
2023-02-11T06:48:11.277Z,2.53
2023-02-11T06:50:43.627Z,4.75
2023-02-11T06:53:16.476Z,2.95
2023-02-11T06:55:49.703Z,4.68
2023-02-11T06:58:24.323Z,3.72
2023-02-11T07:00:56.788Z,3.23
2023-02-11T07:03:29.865Z,2.92
2023-02-11T07:06:03.242Z,2.63
2023-02-11T07:08:37.467Z,2.80
2023-02-11T07:11:11.581Z,2.83
2023-02-11T07:13:46.062Z,2.70
2023-02-11T07:16:20.436Z,3.80
2023-02-11T07:18:53.291Z,3.60
2023-02-11T07:21:26.117Z,3.05
2023-02-11T07:23:58.629Z,2.70
2023-02-11T07:26:31.667Z,1.70
2023-02-11T07:29:05.941Z,1.55
2023-02-11T07:31:38.876Z,2.38
2023-02-11T07:34:12.234Z,2.42
2023-02-11T07:36:45.291Z,2.88
2023-02-11T07:39:18.086Z,2.53
2023-02-11T07:41:51.545Z,4.35
2023-02-11T07:44:25.834Z,3.78
2023-02-11T07:46:59.386Z,3.10
2023-02-11T07:49:32.023Z,4.15
2023-02-11T07:52:05.507Z,5.03
2023-02-11T07:54:38.339Z,3.30
2023-02-11T07:57:11.405Z,4.00
2023-02-11T07:59:45.649Z,3.85
2023-02-11T08:02:18.696Z,2.88
2023-02-11T08:04:51.230Z,3.57
2023-02-11T08:07:24.829Z,2.80
2023-02-11T08:09:58.190Z,3.55
2023-02-11T08:12:31.418Z,2.67
2023-02-11T08:15:06.136Z,3.60
2023-02-11T08:17:39.064Z,3.27
2023-02-11T08:20:12.614Z,3.08
2023-02-11T08:22:45.427Z,3.63
2023-02-11T08:25:18.596Z,3.90
2023-02-11T08:27:51.330Z,2.67
2023-02-11T08:30:27.486Z,3.90
2023-02-11T08:33:00.451Z,3.40
2023-02-11T08:35:35.861Z,2.30
2023-02-11T08:38:09.642Z,3.20
2023-02-11T08:40:42.397Z,3.38
2023-02-11T08:43:15.579Z,2.83
2023-02-11T08:45:50.082Z,2.80
2023-02-11T08:48:22.960Z,2.67
2023-02-11T08:50:56.318Z,2.97
2023-02-11T08:53:28.991Z,3.00
2023-02-11T08:56:02.398Z,1.97
2023-02-11T08:58:35.112Z,2.95
2023-02-11T09:01:12.879Z,2.20
2023-02-11T09:03:46.454Z,2.60
2023-02-11T09:06:20.611Z,2.10
2023-02-11T09:08:56.575Z,2.57
2023-02-11T09:11:32.516Z,2.42
2023-02-11T09:14:05.313Z,2.33
2023-02-11T09:16:39.915Z,3.25
2023-02-11T09:19:12.590Z,3.28
2023-02-11T09:21:45.906Z,3.10
2023-02-11T09:24:18.688Z,2.53
2023-02-11T09:26:52.434Z,2.88
2023-02-11T09:29:24.909Z,3.20
2023-02-11T09:31:59.408Z,2.13
2023-02-11T09:34:32.197Z,3.37
2023-02-11T09:37:05.443Z,4.85
2023-02-11T09:39:37.854Z,2.15
2023-02-11T09:42:38.181Z,2.38
2023-02-11T09:45:16.781Z,2.25
2023-02-11T09:47:56.250Z,1.77
2023-02-11T09:50:33.256Z,3.53
2023-02-11T09:53:15.595Z,4.32
2023-02-11T09:55:55.789Z,3.80
2023-02-11T09:58:30.853Z,2.63
2023-02-11T10:01:09.329Z,2.67
2023-02-11T10:03:58.268Z,2.58
2023-02-11T10:06:43.944Z,2.83
2023-02-11T10:09:34.235Z,3.38
2023-02-11T10:12:26.735Z,2.50
2023-02-11T10:15:15.790Z,2.43
2023-02-11T10:18:02.661Z,3.15
2023-02-11T10:20:39.438Z,2.80
2023-02-11T10:23:18.138Z,2.38
2023-02-11T10:25:56.728Z,3.40
2023-02-11T10:28:33.306Z,2.60
2023-02-11T10:31:10.315Z,2.70
2023-02-11T10:33:47.235Z,2.75
2023-02-11T10:36:27.004Z,2.70
2023-02-11T10:39:00.278Z,2.95
2023-02-11T10:41:37.502Z,3.13
2023-02-11T10:44:21.207Z,3.78
2023-02-11T10:46:55.228Z,3.05
2023-02-11T10:49:36.056Z,4.03
2023-02-11T10:52:21.388Z,2.25
2023-02-11T10:55:01.901Z,3.33
2023-02-11T10:57:40.782Z,2.92
2023-02-11T11:00:44.181Z,3.17
2023-02-11T11:03:19.977Z,2.83
2023-02-11T11:05:58.225Z,3.70
2023-02-11T11:08:44.429Z,3.10
2023-02-11T11:11:19.845Z,2.15
2023-02-11T11:13:58.277Z,2.00
2023-02-11T11:16:32.647Z,3.08
2023-02-11T11:19:21.502Z,1.95
2023-02-11T11:21:57.145Z,3.23
2023-02-11T11:24:38.083Z,3.40
2023-02-11T11:27:18.928Z,2.95
2023-02-11T11:29:55.573Z,3.33
2023-02-11T11:32:32.674Z,1.70
2023-02-11T11:35:21.247Z,3.47
2023-02-11T11:37:58.841Z,2.88
2023-02-11T11:40:36.293Z,2.78
2023-02-11T11:43:23.055Z,3.08
2023-02-11T11:45:58.916Z,2.90
2023-02-11T11:48:35.726Z,3.07
2023-02-11T11:51:11.932Z,3.72
2023-02-11T11:53:51.579Z,3.17
2023-02-11T11:56:30.228Z,2.65
2023-02-11T11:59:12.214Z,2.30
2023-02-11T12:01:58.265Z,2.67
2023-02-11T12:05:02.437Z,2.13
2023-02-11T12:07:50.607Z,3.05
2023-02-11T12:10:40.742Z,2.47
2023-02-11T12:13:30.288Z,2.28
2023-02-11T12:16:13.713Z,2.50
2023-02-11T12:19:24.606Z,2.10
2023-02-11T12:22:10.143Z,1.60
2023-02-11T12:25:06.416Z,2.05
2023-02-11T12:27:48.786Z,1.92
2023-02-11T12:30:41.914Z,1.70
2023-02-11T12:33:24.415Z,1.80
2023-02-11T12:36:02.476Z,2.45
2023-02-11T12:38:52.904Z,1.58
2023-02-11T12:42:11.164Z,2.35
2023-02-11T12:45:00.222Z,2.63
2023-02-11T12:47:41.812Z,2.38
2023-02-11T12:50:24.706Z,1.85
2023-02-11T12:53:13.426Z,1.88
2023-02-11T12:55:49.520Z,1.63
2023-02-11T12:58:35.656Z,1.57
2023-02-11T13:01:21.267Z,2.13
2023-02-11T13:04:02.794Z,1.33
2023-02-11T13:06:41.383Z,1.65
2023-02-11T13:09:21.079Z,2.10
2023-02-11T13:11:58.719Z,1.63
2023-02-11T13:14:37.101Z,1.80
2023-02-11T13:17:19.016Z,2.45
2023-02-11T13:19:58.939Z,2.67
2023-02-11T13:22:36.280Z,2.80
2023-02-11T13:25:22.690Z,1.40
2023-02-11T13:28:03.190Z,1.52
2023-02-11T13:30:39.605Z,1.45
2023-02-11T13:33:22.041Z,2.15
2023-02-11T13:36:16.962Z,2.72
2023-02-11T13:38:56.734Z,2.10
2023-02-11T13:41:35.859Z,1.73
2023-02-11T13:44:24.238Z,2.00
2023-02-11T13:47:00.286Z,1.30
2023-02-11T13:49:37.176Z,1.20
2023-02-11T13:52:26.094Z,1.37
2023-02-11T13:55:03.966Z,1.50
2023-02-11T13:57:41.216Z,1.92
2023-02-11T14:00:47.544Z,2.38
2023-02-11T14:03:50.095Z,2.60
2023-02-11T14:07:07.074Z,0.97
2023-02-11T14:09:41.343Z,1.85
2023-02-11T14:12:24.752Z,1.38
2023-02-11T14:15:19.591Z,2.22
2023-02-11T14:17:52.744Z,1.58
2023-02-11T14:20:39.858Z,1.53
2023-02-11T14:23:27.607Z,1.67
2023-02-11T14:26:28.933Z,1.25
2023-02-11T14:29:14.147Z,1.95
2023-02-11T14:31:55.845Z,2.00
2023-02-11T14:34:46.336Z,1.63
2023-02-11T14:37:32.332Z,1.10
2023-02-11T14:40:18.891Z,1.35
2023-02-11T14:42:55.753Z,1.85
2023-02-11T14:45:29.474Z,1.63
2023-02-11T14:48:08.565Z,1.87
2023-02-11T14:50:45.950Z,1.13
2023-02-11T14:53:21.923Z,2.00
2023-02-11T14:55:55.816Z,1.85
2023-02-11T14:58:31.187Z,0.80
2023-02-11T15:01:06.762Z,1.03
2023-02-11T15:03:41.618Z,2.38
2023-02-11T15:06:18.986Z,1.85
2023-02-11T15:08:54.938Z,1.48
2023-02-11T15:11:29.943Z,2.05
2023-02-11T15:14:09.353Z,1.43
2023-02-11T15:16:45.035Z,2.00
2023-02-11T15:19:22.653Z,1.80
2023-02-11T15:21:57.008Z,1.77
2023-02-11T15:24:31.483Z,1.60
2023-02-11T15:27:15.930Z,0.90
2023-02-11T15:29:50.899Z,1.38
2023-02-11T15:32:25.990Z,2.00
2023-02-11T15:34:58.991Z,2.20
2023-02-11T15:37:31.842Z,1.50
2023-02-11T15:40:12.690Z,2.00
2023-02-11T15:42:55.732Z,1.63
2023-02-11T15:45:33.902Z,1.67
2023-02-11T15:48:10.991Z,1.83
2023-02-11T15:50:51.035Z,3.25
2023-02-11T15:53:28.719Z,1.00
2023-02-11T15:56:08.398Z,1.58
2023-02-11T15:58:43.190Z,2.15
2023-02-11T16:01:17.996Z,1.63
2023-02-11T16:03:51.503Z,1.83
2023-02-11T16:06:26.482Z,1.60
2023-02-11T16:09:01.403Z,1.35
2023-02-11T16:11:36.359Z,2.45
2023-02-11T16:14:23.753Z,2.55
2023-02-11T16:17:02.422Z,1.98
2023-02-11T16:19:36.738Z,1.37
2023-02-11T16:22:14.572Z,1.23
2023-02-11T16:24:49.453Z,1.67
2023-02-11T16:27:24.717Z,2.45
2023-02-11T16:29:58.860Z,1.80
2023-02-11T16:32:33.208Z,1.60
2023-02-11T16:35:12.028Z,0.60
2023-02-11T16:37:44.751Z,2.22
2023-02-11T16:40:18.288Z,1.45
2023-02-11T16:42:52.527Z,1.98
2023-02-11T16:45:25.723Z,1.90
2023-02-11T16:48:00.772Z,1.02
2023-02-11T16:50:34.529Z,2.65
2023-02-11T16:53:07.491Z,2.95
2023-02-11T16:55:40.351Z,1.27
2023-02-11T16:58:13.170Z,1.80
2023-02-11T17:00:47.783Z,2.15
2023-02-11T17:03:24.786Z,2.17
2023-02-11T17:05:57.765Z,2.25
2023-02-11T17:08:30.197Z,2.05
2023-02-11T17:11:03.383Z,1.50
2023-02-11T17:13:36.809Z,2.30
2023-02-11T17:16:18.465Z,2.30
2023-02-11T17:18:52.784Z,1.60
2023-02-11T17:21:29.849Z,2.22
2023-02-11T17:24:02.780Z,2.00
2023-02-11T17:26:37.014Z,1.60
2023-02-11T17:29:11.767Z,2.55
2023-02-11T17:31:44.942Z,2.33
2023-02-11T17:34:19.824Z,2.75
2023-02-11T17:36:52.724Z,1.57
2023-02-11T17:39:26.462Z,1.60
2023-02-11T17:41:59.217Z,2.05
2023-02-11T17:44:31.777Z,2.00
2023-02-11T17:47:04.597Z,1.60
2023-02-11T17:49:40.126Z,1.40
2023-02-11T17:52:13.054Z,1.35
2023-02-11T17:54:47.178Z,1.95
2023-02-11T17:57:19.903Z,1.83
2023-02-11T17:59:52.631Z,1.13
2023-02-11T18:02:25.784Z,1.87
2023-02-11T18:05:00.054Z,1.20
2023-02-11T18:07:33.073Z,1.65
2023-02-11T18:10:07.288Z,1.25
2023-02-11T18:12:39.894Z,2.00
2023-02-11T18:15:13.436Z,1.13
2023-02-11T18:17:46.107Z,1.42
2023-02-11T18:20:20.813Z,1.23
2023-02-11T18:22:53.545Z,1.85
2023-02-11T18:25:26.826Z,1.67
2023-02-11T18:27:59.681Z,1.90
2023-02-11T18:30:32.521Z,1.95
2023-02-11T18:33:08.869Z,1.55
2023-02-11T18:35:46.038Z,1.75
2023-02-11T18:38:18.958Z,1.70
2023-02-11T18:40:52.625Z,1.37
2023-02-11T18:43:25.390Z,2.08
2023-02-11T18:45:58.852Z,1.13
2023-02-11T18:48:31.939Z,1.77
2023-02-11T18:51:10.711Z,1.75
2023-02-11T18:53:43.456Z,1.33
2023-02-11T18:56:18.361Z,2.15
2023-02-11T18:58:52.199Z,1.98
2023-02-11T19:01:27.663Z,1.60
2023-02-11T19:04:04.896Z,1.48
2023-02-11T19:06:40.060Z,2.03
2023-02-11T19:09:16.086Z,2.08
2023-02-11T19:11:54.286Z,1.63
2023-02-11T19:14:29.510Z,2.03
2023-02-11T19:17:06.457Z,1.23
2023-02-11T19:19:40.937Z,1.57
2023-02-11T19:22:15.381Z,1.45
2023-02-11T19:24:48.565Z,1.85
2023-02-11T19:27:21.369Z,1.20
2023-02-11T19:29:54.061Z,1.00
2023-02-11T19:32:27.005Z,1.50
2023-02-11T19:34:59.778Z,1.55
2023-02-11T19:37:34.411Z,1.10
2023-02-11T19:40:08.963Z,1.40
2023-02-11T19:42:42.186Z,1.73
2023-02-11T19:45:15.041Z,2.17
2023-02-11T19:47:47.958Z,2.08
2023-02-11T19:50:20.979Z,1.67
2023-02-11T19:52:55.875Z,1.60
2023-02-11T19:55:28.264Z,1.75
2023-02-11T19:58:01.003Z,1.10
2023-02-11T20:00:33.528Z,1.30
2023-02-11T20:03:07.364Z,1.52
2023-02-11T20:05:43.643Z,0.95
2023-02-11T20:08:18.644Z,2.20
2023-02-11T20:10:52.094Z,1.57
2023-02-11T20:13:24.903Z,0.93
2023-02-11T20:15:57.952Z,2.22
2023-02-11T20:18:31.025Z,1.50
2023-02-11T20:21:07.307Z,1.58
2023-02-11T20:23:41.774Z,2.10
2023-02-11T20:26:16.934Z,1.90
2023-02-11T20:28:51.459Z,1.25
2023-02-11T20:31:25.686Z,1.60
2023-02-11T20:33:58.492Z,1.92
2023-02-11T20:36:32.871Z,2.87
2023-02-11T20:39:07.479Z,1.52
2023-02-11T20:41:41.089Z,1.25
2023-02-11T20:44:14.073Z,1.33
2023-02-11T20:46:47.336Z,1.70
2023-02-11T20:49:22.794Z,1.43
2023-02-11T20:51:56.889Z,1.60
2023-02-11T20:54:31.505Z,1.88
2023-02-11T20:57:04.681Z,1.70
2023-02-11T20:59:37.533Z,1.50
2023-02-11T21:02:12.890Z,1.27
2023-02-11T21:04:45.373Z,2.05
2023-02-11T21:07:19.082Z,1.48
2023-02-11T21:09:53.543Z,1.90
2023-02-11T21:12:26.349Z,1.50
2023-02-11T21:14:59.057Z,1.50
2023-02-11T21:17:32.683Z,1.15
2023-02-11T21:20:06.062Z,1.25
2023-02-11T21:22:38.748Z,1.08
2023-02-11T21:25:13.409Z,0.90
2023-02-11T21:27:46.453Z,2.13
2023-02-11T21:30:19.560Z,1.23
2023-02-11T21:32:52.302Z,1.13
2023-02-11T21:35:25.587Z,2.08
2023-02-11T21:37:58.299Z,1.60
2023-02-11T21:40:32.691Z,1.30
2023-02-11T21:43:05.764Z,1.15
2023-02-11T21:45:43.371Z,1.85
2023-02-11T21:48:17.266Z,0.88
2023-02-11T21:50:50.340Z,1.77
2023-02-11T21:53:22.790Z,0.87
2023-02-11T21:56:05.311Z,1.40
2023-02-11T21:58:38.268Z,1.50
2023-02-11T22:01:13.293Z,1.10
2023-02-11T22:03:47.185Z,1.70
2023-02-11T22:06:22.747Z,0.90
2023-02-11T22:08:55.698Z,1.50
2023-02-11T22:11:30.350Z,2.05
2023-02-11T22:14:03.064Z,0.85
2023-02-11T22:16:36.298Z,1.23
2023-02-11T22:19:09.669Z,1.53
2023-02-11T22:21:43.802Z,1.67
2023-02-11T22:24:16.269Z,1.65
2023-02-11T22:26:51.017Z,1.30
2023-02-11T22:29:24.036Z,1.35
2023-02-11T22:31:56.509Z,1.00
2023-02-11T22:34:29.545Z,1.02
2023-02-11T22:37:03.332Z,1.75
2023-02-11T22:39:36.472Z,1.08
2023-02-11T22:42:10.902Z,1.88
2023-02-11T22:44:43.346Z,1.20
2023-02-11T22:47:16.292Z,0.85
2023-02-11T22:49:49.255Z,1.45
2023-02-11T22:52:23.460Z,1.40
2023-02-11T22:54:56.297Z,0.75
2023-02-11T22:57:30.179Z,1.50
2023-02-11T23:00:03.404Z,1.17
2023-02-11T23:02:38.355Z,1.02
2023-02-11T23:05:11.169Z,0.30
2023-02-11T23:07:43.586Z,0.47
2023-02-11T23:10:16.895Z,0.73
2023-02-11T23:12:51.004Z,0.20
2023-02-11T23:15:23.686Z,0.50
2023-02-11T23:17:56.499Z,0.52
2023-02-11T23:20:29.336Z,0.30
2023-02-11T23:23:02.083Z,0.20
2023-02-11T23:25:35.465Z,0.30
2023-02-11T23:28:10.309Z,0.20
2023-02-11T23:30:42.839Z,0.17
2023-02-11T23:33:15.777Z,0.50
2023-02-11T23:35:49.208Z,0.00
2023-02-11T23:38:22.124Z,0.10
2023-02-11T23:40:54.966Z,0.20
2023-02-11T23:43:29.126Z,0.13
2023-02-11T23:46:01.974Z,0.00
2023-02-11T23:48:36.548Z,0.10
2023-02-11T23:51:11.760Z,0.10
2023-02-11T23:53:46.380Z,0.10
2023-02-11T23:56:21.124Z,0.20
2023-02-11T23:58:56.528Z,0.03
